sensor_id;sensor_type;location;lat;lon;timestamp;P1;durP1;ratioP1;P2;durP2;ratioP2
44270;SDS011;29963;44.594;11.368;2023-09-07T00:01:12;4.30;;;3.88;;
44270;SDS011;29963;44.594;11.368;2023-09-07T00:03:38;6.50;;;4.28;;
44270;SDS011;29963;44.594;11.368;2023-09-07T00:06:06;5.65;;;4.00;;
44270;SDS011;29963;44.594;11.368;2023-09-07T00:08:32;7.60;;;4.15;;
44270;SDS011;29963;44.594;11.368;2023-09-07T00:11:04;5.05;;;3.70;;
44270;SDS011;29963;44.594;11.368;2023-09-07T00:13:31;4.68;;;4.18;;
44270;SDS011;29963;44.594;11.368;2023-09-07T00:16:00;5.75;;;3.42;;
44270;SDS011;29963;44.594;11.368;2023-09-07T00:18:27;5.03;;;4.20;;
44270;SDS011;29963;44.594;11.368;2023-09-07T00:20:53;5.50;;;4.13;;
44270;SDS011;29963;44.594;11.368;2023-09-07T00:23:19;7.10;;;4.07;;
44270;SDS011;29963;44.594;11.368;2023-09-07T00:25:47;6.65;;;4.20;;
44270;SDS011;29963;44.594;11.368;2023-09-07T00:28:13;4.93;;;4.43;;
44270;SDS011;29963;44.594;11.368;2023-09-07T00:30:39;4.40;;;4.00;;
44270;SDS011;29963;44.594;11.368;2023-09-07T00:33:05;5.05;;;3.85;;
44270;SDS011;29963;44.594;11.368;2023-09-07T00:35:31;4.47;;;4.07;;
44270;SDS011;29963;44.594;11.368;2023-09-07T00:37:57;4.95;;;3.80;;
44270;SDS011;29963;44.594;11.368;2023-09-07T00:40:22;4.10;;;3.53;;
44270;SDS011;29963;44.594;11.368;2023-09-07T00:42:48;4.32;;;3.92;;
44270;SDS011;29963;44.594;11.368;2023-09-07T00:45:14;5.10;;;4.32;;
44270;SDS011;29963;44.594;11.368;2023-09-07T00:47:40;4.03;;;3.55;;
44270;SDS011;29963;44.594;11.368;2023-09-07T00:50:06;4.18;;;3.78;;
44270;SDS011;29963;44.594;11.368;2023-09-07T00:52:32;6.18;;;4.97;;
44270;SDS011;29963;44.594;11.368;2023-09-07T00:54:59;7.93;;;3.90;;
44270;SDS011;29963;44.594;11.368;2023-09-07T00:57:26;4.60;;;4.18;;
44270;SDS011;29963;44.594;11.368;2023-09-07T00:59:52;5.28;;;4.35;;
44270;SDS011;29963;44.594;11.368;2023-09-07T01:02:18;5.55;;;3.95;;
44270;SDS011;29963;44.594;11.368;2023-09-07T01:04:44;4.45;;;3.75;;
44270;SDS011;29963;44.594;11.368;2023-09-07T01:07:14;5.05;;;4.10;;
44270;SDS011;29963;44.594;11.368;2023-09-07T01:09:43;5.90;;;3.58;;
44270;SDS011;29963;44.594;11.368;2023-09-07T01:12:15;5.65;;;4.28;;
44270;SDS011;29963;44.594;11.368;2023-09-07T01:14:41;6.82;;;4.03;;
44270;SDS011;29963;44.594;11.368;2023-09-07T01:17:07;6.47;;;4.22;;
44270;SDS011;29963;44.594;11.368;2023-09-07T01:19:34;4.38;;;3.95;;
44270;SDS011;29963;44.594;11.368;2023-09-07T01:22:00;5.53;;;4.45;;
44270;SDS011;29963;44.594;11.368;2023-09-07T01:24:26;6.72;;;4.10;;
44270;SDS011;29963;44.594;11.368;2023-09-07T01:26:55;5.03;;;4.03;;
44270;SDS011;29963;44.594;11.368;2023-09-07T01:29:24;6.88;;;4.63;;
44270;SDS011;29963;44.594;11.368;2023-09-07T01:31:54;7.03;;;4.50;;
44270;SDS011;29963;44.594;11.368;2023-09-07T01:34:20;4.97;;;4.05;;
44270;SDS011;29963;44.594;11.368;2023-09-07T01:36:45;4.90;;;4.40;;
44270;SDS011;29963;44.594;11.368;2023-09-07T01:39:11;4.32;;;3.92;;
44270;SDS011;29963;44.594;11.368;2023-09-07T01:41:37;7.07;;;4.53;;
44270;SDS011;29963;44.594;11.368;2023-09-07T01:44:02;6.40;;;4.25;;
44270;SDS011;29963;44.594;11.368;2023-09-07T01:46:28;4.28;;;3.88;;
44270;SDS011;29963;44.594;11.368;2023-09-07T01:48:54;4.65;;;4.25;;
44270;SDS011;29963;44.594;11.368;2023-09-07T01:51:19;7.03;;;4.43;;
44270;SDS011;29963;44.594;11.368;2023-09-07T01:53:47;5.68;;;3.97;;
44270;SDS011;29963;44.594;11.368;2023-09-07T01:56:13;6.25;;;4.38;;
44270;SDS011;29963;44.594;11.368;2023-09-07T01:58:40;6.90;;;4.13;;
44270;SDS011;29963;44.594;11.368;2023-09-07T02:01:06;4.38;;;3.97;;
44270;SDS011;29963;44.594;11.368;2023-09-07T02:03:32;12.63;;;5.15;;
44270;SDS011;29963;44.594;11.368;2023-09-07T02:05:57;6.00;;;4.70;;
44270;SDS011;29963;44.594;11.368;2023-09-07T02:08:23;7.07;;;4.40;;
44270;SDS011;29963;44.594;11.368;2023-09-07T02:10:48;6.38;;;5.00;;
44270;SDS011;29963;44.594;11.368;2023-09-07T02:13:14;4.50;;;4.10;;
44270;SDS011;29963;44.594;11.368;2023-09-07T02:15:40;6.55;;;4.57;;
44270;SDS011;29963;44.594;11.368;2023-09-07T02:18:06;5.10;;;4.60;;
44270;SDS011;29963;44.594;11.368;2023-09-07T02:20:32;5.05;;;4.55;;
44270;SDS011;29963;44.594;11.368;2023-09-07T02:22:58;7.95;;;4.32;;
44270;SDS011;29963;44.594;11.368;2023-09-07T02:25:24;5.55;;;4.45;;
44270;SDS011;29963;44.594;11.368;2023-09-07T02:27:49;4.90;;;4.45;;
44270;SDS011;29963;44.594;11.368;2023-09-07T02:30:15;6.28;;;4.50;;
44270;SDS011;29963;44.594;11.368;2023-09-07T02:32:42;5.05;;;4.45;;
44270;SDS011;29963;44.594;11.368;2023-09-07T02:35:08;7.70;;;5.20;;
44270;SDS011;29963;44.594;11.368;2023-09-07T02:37:35;7.32;;;5.22;;
44270;SDS011;29963;44.594;11.368;2023-09-07T02:40:00;8.20;;;4.47;;
44270;SDS011;29963;44.594;11.368;2023-09-07T02:42:26;5.55;;;4.32;;
44270;SDS011;29963;44.594;11.368;2023-09-07T02:44:52;6.85;;;4.70;;
44270;SDS011;29963;44.594;11.368;2023-09-07T02:47:18;6.18;;;5.15;;
44270;SDS011;29963;44.594;11.368;2023-09-07T02:49:44;4.95;;;4.40;;
44270;SDS011;29963;44.594;11.368;2023-09-07T02:52:09;6.05;;;3.97;;
44270;SDS011;29963;44.594;11.368;2023-09-07T02:54:35;4.40;;;3.90;;
44270;SDS011;29963;44.594;11.368;2023-09-07T02:57:01;5.22;;;4.55;;
44270;SDS011;29963;44.594;11.368;2023-09-07T02:59:26;6.10;;;4.22;;
44270;SDS011;29963;44.594;11.368;2023-09-07T03:01:52;7.32;;;4.35;;
44270;SDS011;29963;44.594;11.368;2023-09-07T03:04:17;6.93;;;5.15;;
44270;SDS011;29963;44.594;11.368;2023-09-07T03:06:43;5.03;;;4.45;;
44270;SDS011;29963;44.594;11.368;2023-09-07T03:09:09;4.78;;;4.20;;
44270;SDS011;29963;44.594;11.368;2023-09-07T03:11:34;4.57;;;4.18;;
44270;SDS011;29963;44.594;11.368;2023-09-07T03:14:00;5.32;;;4.50;;
44270;SDS011;29963;44.594;11.368;2023-09-07T03:16:26;4.68;;;4.28;;
44270;SDS011;29963;44.594;11.368;2023-09-07T03:18:52;4.70;;;3.60;;
44270;SDS011;29963;44.594;11.368;2023-09-07T03:21:17;5.63;;;5.00;;
44270;SDS011;29963;44.594;11.368;2023-09-07T03:23:44;5.40;;;4.50;;
44270;SDS011;29963;44.594;11.368;2023-09-07T03:26:10;4.63;;;4.22;;
44270;SDS011;29963;44.594;11.368;2023-09-07T03:28:35;9.73;;;4.70;;
44270;SDS011;29963;44.594;11.368;2023-09-07T03:31:01;5.13;;;3.47;;
44270;SDS011;29963;44.594;11.368;2023-09-07T03:33:27;6.60;;;4.10;;
44270;SDS011;29963;44.594;11.368;2023-09-07T03:35:52;5.13;;;4.47;;
44270;SDS011;29963;44.594;11.368;2023-09-07T03:38:23;8.57;;;4.25;;
44270;SDS011;29963;44.594;11.368;2023-09-07T03:40:49;6.90;;;4.20;;
44270;SDS011;29963;44.594;11.368;2023-09-07T03:43:14;4.93;;;4.43;;
44270;SDS011;29963;44.594;11.368;2023-09-07T03:45:40;6.13;;;5.03;;
44270;SDS011;29963;44.594;11.368;2023-09-07T03:48:05;4.90;;;4.40;;
44270;SDS011;29963;44.594;11.368;2023-09-07T03:50:31;4.70;;;4.22;;
44270;SDS011;29963;44.594;11.368;2023-09-07T03:52:57;5.50;;;4.15;;
44270;SDS011;29963;44.594;11.368;2023-09-07T03:55:22;4.45;;;4.05;;
44270;SDS011;29963;44.594;11.368;2023-09-07T03:57:48;5.65;;;5.15;;
44270;SDS011;29963;44.594;11.368;2023-09-07T04:00:14;5.03;;;4.60;;
44270;SDS011;29963;44.594;11.368;2023-09-07T04:02:40;5.82;;;5.25;;
44270;SDS011;29963;44.594;11.368;2023-09-07T04:05:06;8.95;;;5.97;;
44270;SDS011;29963;44.594;11.368;2023-09-07T04:07:32;5.68;;;4.95;;
44270;SDS011;29963;44.594;11.368;2023-09-07T04:09:58;5.78;;;5.18;;
44270;SDS011;29963;44.594;11.368;2023-09-07T04:12:23;6.68;;;5.38;;
44270;SDS011;29963;44.594;11.368;2023-09-07T04:14:49;5.57;;;5.07;;
44270;SDS011;29963;44.594;11.368;2023-09-07T04:17:15;7.20;;;5.57;;
44270;SDS011;29963;44.594;11.368;2023-09-07T04:19:40;8.25;;;6.85;;
44270;SDS011;29963;44.594;11.368;2023-09-07T04:22:08;6.05;;;5.50;;
44270;SDS011;29963;44.594;11.368;2023-09-07T04:24:34;7.50;;;5.63;;
44270;SDS011;29963;44.594;11.368;2023-09-07T04:26:59;9.77;;;6.22;;
44270;SDS011;29963;44.594;11.368;2023-09-07T04:29:26;8.40;;;6.72;;
44270;SDS011;29963;44.594;11.368;2023-09-07T04:31:52;8.15;;;6.30;;
44270;SDS011;29963;44.594;11.368;2023-09-07T04:34:18;8.60;;;6.82;;
44270;SDS011;29963;44.594;11.368;2023-09-07T04:36:43;7.15;;;6.50;;
44270;SDS011;29963;44.594;11.368;2023-09-07T04:39:09;8.10;;;6.95;;
44270;SDS011;29963;44.594;11.368;2023-09-07T04:41:35;7.78;;;6.85;;
44270;SDS011;29963;44.594;11.368;2023-09-07T04:44:01;8.02;;;6.97;;
44270;SDS011;29963;44.594;11.368;2023-09-07T04:46:26;8.80;;;7.90;;
44270;SDS011;29963;44.594;11.368;2023-09-07T04:48:52;15.23;;;8.15;;
44270;SDS011;29963;44.594;11.368;2023-09-07T04:51:18;7.53;;;6.60;;
44270;SDS011;29963;44.594;11.368;2023-09-07T04:53:44;8.32;;;7.53;;
44270;SDS011;29963;44.594;11.368;2023-09-07T04:56:10;6.82;;;6.22;;
44270;SDS011;29963;44.594;11.368;2023-09-07T04:58:35;10.80;;;6.50;;
44270;SDS011;29963;44.594;11.368;2023-09-07T05:01:04;9.20;;;6.78;;
44270;SDS011;29963;44.594;11.368;2023-09-07T05:03:34;12.88;;;8.48;;
44270;SDS011;29963;44.594;11.368;2023-09-07T05:06:01;14.82;;;7.93;;
44270;SDS011;29963;44.594;11.368;2023-09-07T05:08:30;8.45;;;7.18;;
44270;SDS011;29963;44.594;11.368;2023-09-07T05:10:59;18.73;;;8.80;;
44270;SDS011;29963;44.594;11.368;2023-09-07T05:13:30;16.38;;;8.23;;
44270;SDS011;29963;44.594;11.368;2023-09-07T05:15:57;9.05;;;7.38;;
44270;SDS011;29963;44.594;11.368;2023-09-07T05:18:24;8.45;;;7.25;;
44270;SDS011;29963;44.594;11.368;2023-09-07T05:20:49;10.82;;;8.60;;
44270;SDS011;29963;44.594;11.368;2023-09-07T05:23:18;10.52;;;9.02;;
44270;SDS011;29963;44.594;11.368;2023-09-07T05:25:47;9.80;;;7.68;;
44270;SDS011;29963;44.594;11.368;2023-09-07T05:28:17;10.55;;;7.85;;
44270;SDS011;29963;44.594;11.368;2023-09-07T05:30:43;11.55;;;8.18;;
44270;SDS011;29963;44.594;11.368;2023-09-07T05:33:09;13.23;;;8.90;;
44270;SDS011;29963;44.594;11.368;2023-09-07T05:35:36;9.80;;;8.25;;
44270;SDS011;29963;44.594;11.368;2023-09-07T05:38:02;11.70;;;9.73;;
44270;SDS011;29963;44.594;11.368;2023-09-07T05:40:29;11.52;;;8.85;;
44270;SDS011;29963;44.594;11.368;2023-09-07T05:42:58;10.13;;;9.00;;
44270;SDS011;29963;44.594;11.368;2023-09-07T05:45:24;10.32;;;9.35;;
44270;SDS011;29963;44.594;11.368;2023-09-07T05:47:50;15.13;;;10.93;;
44270;SDS011;29963;44.594;11.368;2023-09-07T05:50:16;13.02;;;10.18;;
44270;SDS011;29963;44.594;11.368;2023-09-07T05:52:41;12.55;;;9.98;;
44270;SDS011;29963;44.594;11.368;2023-09-07T05:55:07;13.63;;;9.07;;
44270;SDS011;29963;44.594;11.368;2023-09-07T05:57:32;12.50;;;9.82;;
44270;SDS011;29963;44.594;11.368;2023-09-07T05:59:58;11.18;;;10.10;;
44270;SDS011;29963;44.594;11.368;2023-09-07T06:02:24;12.45;;;9.13;;
44270;SDS011;29963;44.594;11.368;2023-09-07T06:04:49;10.52;;;9.52;;
44270;SDS011;29963;44.594;11.368;2023-09-07T06:07:15;10.68;;;9.57;;
44270;SDS011;29963;44.594;11.368;2023-09-07T06:09:40;13.95;;;12.55;;
44270;SDS011;29963;44.594;11.368;2023-09-07T06:12:06;11.77;;;10.57;;
44270;SDS011;29963;44.594;11.368;2023-09-07T06:14:32;11.95;;;10.15;;
44270;SDS011;29963;44.594;11.368;2023-09-07T06:16:57;12.93;;;11.10;;
44270;SDS011;29963;44.594;11.368;2023-09-07T06:19:23;17.17;;;9.07;;
44270;SDS011;29963;44.594;11.368;2023-09-07T06:21:49;10.50;;;8.73;;
44270;SDS011;29963;44.594;11.368;2023-09-07T06:24:14;10.20;;;9.15;;
44270;SDS011;29963;44.594;11.368;2023-09-07T06:26:40;9.93;;;8.93;;
44270;SDS011;29963;44.594;11.368;2023-09-07T06:29:07;11.65;;;8.88;;
44270;SDS011;29963;44.594;11.368;2023-09-07T06:31:33;12.20;;;9.35;;
44270;SDS011;29963;44.594;11.368;2023-09-07T06:33:58;13.18;;;9.65;;
44270;SDS011;29963;44.594;11.368;2023-09-07T06:36:24;12.40;;;9.55;;
44270;SDS011;29963;44.594;11.368;2023-09-07T06:38:50;11.32;;;9.00;;
44270;SDS011;29963;44.594;11.368;2023-09-07T06:41:15;12.48;;;9.25;;
44270;SDS011;29963;44.594;11.368;2023-09-07T06:43:41;10.52;;;9.52;;
44270;SDS011;29963;44.594;11.368;2023-09-07T06:46:07;11.98;;;9.65;;
44270;SDS011;29963;44.594;11.368;2023-09-07T06:48:34;11.35;;;10.18;;
44270;SDS011;29963;44.594;11.368;2023-09-07T06:51:03;11.88;;;9.18;;
44270;SDS011;29963;44.594;11.368;2023-09-07T06:53:30;11.80;;;10.20;;
44270;SDS011;29963;44.594;11.368;2023-09-07T06:55:59;11.48;;;9.45;;
44270;SDS011;29963;44.594;11.368;2023-09-07T06:58:25;11.32;;;10.15;;
44270;SDS011;29963;44.594;11.368;2023-09-07T07:00:50;13.60;;;9.95;;
44270;SDS011;29963;44.594;11.368;2023-09-07T07:03:16;10.73;;;9.63;;
44270;SDS011;29963;44.594;11.368;2023-09-07T07:05:42;10.95;;;8.88;;
44270;SDS011;29963;44.594;11.368;2023-09-07T07:08:07;14.50;;;9.45;;
44270;SDS011;29963;44.594;11.368;2023-09-07T07:10:34;13.02;;;10.70;;
44270;SDS011;29963;44.594;11.368;2023-09-07T07:13:00;11.55;;;10.40;;
44270;SDS011;29963;44.594;11.368;2023-09-07T07:15:25;15.63;;;11.00;;
44270;SDS011;29963;44.594;11.368;2023-09-07T07:17:51;12.60;;;10.48;;
44270;SDS011;29963;44.594;11.368;2023-09-07T07:20:17;11.38;;;10.30;;
44270;SDS011;29963;44.594;11.368;2023-09-07T07:22:42;12.90;;;11.57;;
44270;SDS011;29963;44.594;11.368;2023-09-07T07:25:08;11.75;;;10.55;;
44270;SDS011;29963;44.594;11.368;2023-09-07T07:27:35;12.05;;;10.18;;
44270;SDS011;29963;44.594;11.368;2023-09-07T07:30:01;11.38;;;10.35;;
44270;SDS011;29963;44.594;11.368;2023-09-07T07:32:27;17.35;;;10.55;;
44270;SDS011;29963;44.594;11.368;2023-09-07T07:34:53;11.68;;;10.07;;
44270;SDS011;29963;44.594;11.368;2023-09-07T07:37:18;13.27;;;9.85;;
44270;SDS011;29963;44.594;11.368;2023-09-07T07:39:44;10.18;;;9.18;;
44270;SDS011;29963;44.594;11.368;2023-09-07T07:42:10;13.15;;;8.70;;
44270;SDS011;29963;44.594;11.368;2023-09-07T07:44:35;10.90;;;9.20;;
44270;SDS011;29963;44.594;11.368;2023-09-07T07:47:01;8.40;;;7.57;;
44270;SDS011;29963;44.594;11.368;2023-09-07T07:49:27;8.60;;;7.15;;
44270;SDS011;29963;44.594;11.368;2023-09-07T07:51:52;12.25;;;7.65;;
44270;SDS011;29963;44.594;11.368;2023-09-07T07:54:20;10.90;;;6.97;;
44270;SDS011;29963;44.594;11.368;2023-09-07T07:56:47;10.02;;;7.80;;
44270;SDS011;29963;44.594;11.368;2023-09-07T07:59:13;11.00;;;7.63;;
44270;SDS011;29963;44.594;11.368;2023-09-07T08:01:39;8.05;;;7.25;;
44270;SDS011;29963;44.594;11.368;2023-09-07T08:04:05;16.70;;;8.35;;
44270;SDS011;29963;44.594;11.368;2023-09-07T08:06:32;8.13;;;6.82;;
44270;SDS011;29963;44.594;11.368;2023-09-07T08:08:57;10.38;;;7.78;;
44270;SDS011;29963;44.594;11.368;2023-09-07T08:11:23;11.35;;;7.45;;
44270;SDS011;29963;44.594;11.368;2023-09-07T08:13:49;6.82;;;6.18;;
44270;SDS011;29963;44.594;11.368;2023-09-07T08:16:15;7.50;;;6.10;;
44270;SDS011;29963;44.594;11.368;2023-09-07T08:18:40;8.82;;;5.53;;
44270;SDS011;29963;44.594;11.368;2023-09-07T08:21:06;9.80;;;6.75;;
44270;SDS011;29963;44.594;11.368;2023-09-07T08:23:32;9.05;;;6.50;;
44270;SDS011;29963;44.594;11.368;2023-09-07T08:25:57;6.95;;;5.80;;
44270;SDS011;29963;44.594;11.368;2023-09-07T08:28:23;6.82;;;5.93;;
44270;SDS011;29963;44.594;11.368;2023-09-07T08:30:50;6.97;;;5.32;;
44270;SDS011;29963;44.594;11.368;2023-09-07T08:33:22;8.63;;;5.78;;
44270;SDS011;29963;44.594;11.368;2023-09-07T08:35:51;8.68;;;5.70;;
44270;SDS011;29963;44.594;11.368;2023-09-07T08:38:21;10.85;;;6.22;;
44270;SDS011;29963;44.594;11.368;2023-09-07T08:40:53;6.38;;;5.40;;
44270;SDS011;29963;44.594;11.368;2023-09-07T08:43:20;9.57;;;6.40;;
44270;SDS011;29963;44.594;11.368;2023-09-07T08:45:49;6.78;;;4.90;;
44270;SDS011;29963;44.594;11.368;2023-09-07T08:48:23;10.55;;;6.10;;
44270;SDS011;29963;44.594;11.368;2023-09-07T08:50:50;5.40;;;4.65;;
44270;SDS011;29963;44.594;11.368;2023-09-07T08:53:17;7.78;;;6.35;;
44270;SDS011;29963;44.594;11.368;2023-09-07T08:55:45;8.35;;;6.60;;
44270;SDS011;29963;44.594;11.368;2023-09-07T08:58:10;9.45;;;6.60;;
44270;SDS011;29963;44.594;11.368;2023-09-07T09:00:37;7.30;;;5.45;;
44270;SDS011;29963;44.594;11.368;2023-09-07T09:03:03;6.63;;;4.68;;
44270;SDS011;29963;44.594;11.368;2023-09-07T09:05:29;7.53;;;6.18;;
44270;SDS011;29963;44.594;11.368;2023-09-07T09:08:04;11.13;;;5.68;;
44270;SDS011;29963;44.594;11.368;2023-09-07T09:10:30;7.68;;;6.45;;
44270;SDS011;29963;44.594;11.368;2023-09-07T09:12:56;6.80;;;6.10;;
44270;SDS011;29963;44.594;11.368;2023-09-07T09:15:24;8.55;;;5.82;;
44270;SDS011;29963;44.594;11.368;2023-09-07T09:17:50;5.28;;;4.65;;
44270;SDS011;29963;44.594;11.368;2023-09-07T09:20:19;8.90;;;5.93;;
44270;SDS011;29963;44.594;11.368;2023-09-07T09:22:52;6.70;;;5.95;;
44270;SDS011;29963;44.594;11.368;2023-09-07T09:25:19;6.70;;;5.45;;
44270;SDS011;29963;44.594;11.368;2023-09-07T09:27:46;9.50;;;6.18;;
44270;SDS011;29963;44.594;11.368;2023-09-07T09:30:12;5.07;;;4.57;;
44270;SDS011;29963;44.594;11.368;2023-09-07T09:32:40;5.38;;;4.88;;
44270;SDS011;29963;44.594;11.368;2023-09-07T09:35:06;7.07;;;4.85;;
44270;SDS011;29963;44.594;11.368;2023-09-07T09:37:33;10.23;;;6.25;;
44270;SDS011;29963;44.594;11.368;2023-09-07T09:39:59;41.70;;;8.30;;
44270;SDS011;29963;44.594;11.368;2023-09-07T09:42:27;7.78;;;5.07;;
44270;SDS011;29963;44.594;11.368;2023-09-07T09:44:52;7.82;;;5.40;;
44270;SDS011;29963;44.594;11.368;2023-09-07T09:47:19;9.32;;;4.93;;
44270;SDS011;29963;44.594;11.368;2023-09-07T09:49:47;7.93;;;5.22;;
44270;SDS011;29963;44.594;11.368;2023-09-07T09:52:15;6.28;;;5.38;;
44270;SDS011;29963;44.594;11.368;2023-09-07T09:54:41;48.22;;;13.38;;
44270;SDS011;29963;44.594;11.368;2023-09-07T09:57:08;8.20;;;5.05;;
44270;SDS011;29963;44.594;11.368;2023-09-07T09:59:34;7.95;;;4.68;;
44270;SDS011;29963;44.594;11.368;2023-09-07T10:01:59;5.68;;;4.30;;
44270;SDS011;29963;44.594;11.368;2023-09-07T10:04:27;5.60;;;4.10;;
44270;SDS011;29963;44.594;11.368;2023-09-07T10:07:03;7.60;;;4.95;;
44270;SDS011;29963;44.594;11.368;2023-09-07T10:09:33;6.82;;;4.43;;
44270;SDS011;29963;44.594;11.368;2023-09-07T10:11:59;6.90;;;4.22;;
44270;SDS011;29963;44.594;11.368;2023-09-07T10:14:37;7.15;;;5.25;;
44270;SDS011;29963;44.594;11.368;2023-09-07T10:17:04;4.95;;;3.90;;
44270;SDS011;29963;44.594;11.368;2023-09-07T10:19:29;6.10;;;4.13;;
44270;SDS011;29963;44.594;11.368;2023-09-07T10:21:55;5.10;;;3.80;;
44270;SDS011;29963;44.594;11.368;2023-09-07T10:26:58;4.60;;;4.20;;
44270;SDS011;29963;44.594;11.368;2023-09-07T10:29:39;7.82;;;4.18;;
44270;SDS011;29963;44.594;11.368;2023-09-07T10:32:15;7.63;;;4.85;;
44270;SDS011;29963;44.594;11.368;2023-09-07T10:34:41;11.98;;;4.32;;
44270;SDS011;29963;44.594;11.368;2023-09-07T10:37:10;4.15;;;3.58;;
44270;SDS011;29963;44.594;11.368;2023-09-07T10:39:38;4.53;;;3.97;;
44270;SDS011;29963;44.594;11.368;2023-09-07T10:42:04;7.15;;;3.78;;
44270;SDS011;29963;44.594;11.368;2023-09-07T10:44:30;6.88;;;3.75;;
44270;SDS011;29963;44.594;11.368;2023-09-07T10:46:58;4.20;;;3.53;;
44270;SDS011;29963;44.594;11.368;2023-09-07T10:49:25;3.47;;;3.10;;
44270;SDS011;29963;44.594;11.368;2023-09-07T10:51:51;5.18;;;3.78;;
44270;SDS011;29963;44.594;11.368;2023-09-07T10:54:17;4.85;;;3.80;;
44270;SDS011;29963;44.594;11.368;2023-09-07T10:56:44;4.57;;;3.72;;
44270;SDS011;29963;44.594;11.368;2023-09-07T10:59:12;3.92;;;3.35;;
44270;SDS011;29963;44.594;11.368;2023-09-07T11:01:38;5.82;;;4.00;;
44270;SDS011;29963;44.594;11.368;2023-09-07T11:04:04;5.68;;;3.40;;
44270;SDS011;29963;44.594;11.368;2023-09-07T11:06:33;7.43;;;3.88;;
44270;SDS011;29963;44.594;11.368;2023-09-07T11:08:59;4.90;;;4.03;;
44270;SDS011;29963;44.594;11.368;2023-09-07T11:11:26;6.72;;;4.32;;
44270;SDS011;29963;44.594;11.368;2023-09-07T11:13:52;7.18;;;3.60;;
44270;SDS011;29963;44.594;11.368;2023-09-07T11:16:17;6.47;;;3.58;;
44270;SDS011;29963;44.594;11.368;2023-09-07T11:18:44;7.68;;;3.70;;
44270;SDS011;29963;44.594;11.368;2023-09-07T11:21:11;3.75;;;3.38;;
44270;SDS011;29963;44.594;11.368;2023-09-07T11:23:36;4.88;;;4.18;;
44270;SDS011;29963;44.594;11.368;2023-09-07T11:26:05;4.22;;;3.40;;
44270;SDS011;29963;44.594;11.368;2023-09-07T11:28:33;5.72;;;3.58;;
44270;SDS011;29963;44.594;11.368;2023-09-07T11:30:59;7.15;;;4.38;;
44270;SDS011;29963;44.594;11.368;2023-09-07T11:33:25;4.75;;;3.67;;
44270;SDS011;29963;44.594;11.368;2023-09-07T11:35:51;6.63;;;3.53;;
44270;SDS011;29963;44.594;11.368;2023-09-07T11:38:19;3.72;;;3.20;;
44270;SDS011;29963;44.594;11.368;2023-09-07T11:40:45;4.38;;;3.55;;
44270;SDS011;29963;44.594;11.368;2023-09-07T11:43:14;4.10;;;2.80;;
44270;SDS011;29963;44.594;11.368;2023-09-07T11:45:41;3.47;;;3.08;;
44270;SDS011;29963;44.594;11.368;2023-09-07T11:48:07;4.13;;;3.72;;
44270;SDS011;29963;44.594;11.368;2023-09-07T11:50:36;4.10;;;3.63;;
44270;SDS011;29963;44.594;11.368;2023-09-07T11:53:03;3.92;;;3.53;;
44270;SDS011;29963;44.594;11.368;2023-09-07T11:55:29;7.00;;;3.75;;
44270;SDS011;29963;44.594;11.368;2023-09-07T11:57:55;4.47;;;2.92;;
44270;SDS011;29963;44.594;11.368;2023-09-07T12:00:21;4.68;;;2.90;;
44270;SDS011;29963;44.594;11.368;2023-09-07T12:02:47;9.48;;;3.35;;
44270;SDS011;29963;44.594;11.368;2023-09-07T12:05:13;4.93;;;3.58;;
44270;SDS011;29963;44.594;11.368;2023-09-07T12:07:40;10.00;;;3.72;;
44270;SDS011;29963;44.594;11.368;2023-09-07T12:10:08;4.03;;;2.97;;
44270;SDS011;29963;44.594;11.368;2023-09-07T12:12:38;4.95;;;3.03;;
44270;SDS011;29963;44.594;11.368;2023-09-07T12:15:05;3.75;;;3.10;;
44270;SDS011;29963;44.594;11.368;2023-09-07T12:17:31;3.92;;;3.53;;
44270;SDS011;29963;44.594;11.368;2023-09-07T12:19:57;3.90;;;2.78;;
44270;SDS011;29963;44.594;11.368;2023-09-07T12:22:23;4.90;;;3.17;;
44270;SDS011;29963;44.594;11.368;2023-09-07T12:24:49;3.75;;;3.10;;
44270;SDS011;29963;44.594;11.368;2023-09-07T12:27:15;3.72;;;3.00;;
44270;SDS011;29963;44.594;11.368;2023-09-07T12:29:41;3.90;;;3.00;;
44270;SDS011;29963;44.594;11.368;2023-09-07T12:32:06;5.43;;;3.65;;
44270;SDS011;29963;44.594;11.368;2023-09-07T12:34:32;8.77;;;2.60;;
44270;SDS011;29963;44.594;11.368;2023-09-07T12:36:58;5.55;;;3.55;;
44270;SDS011;29963;44.594;11.368;2023-09-07T12:39:23;5.32;;;2.63;;
44270;SDS011;29963;44.594;11.368;2023-09-07T12:41:49;3.15;;;2.83;;
44270;SDS011;29963;44.594;11.368;2023-09-07T12:44:15;3.20;;;2.92;;
44270;SDS011;29963;44.594;11.368;2023-09-07T12:46:41;2.97;;;2.63;;
44270;SDS011;29963;44.594;11.368;2023-09-07T12:49:07;3.70;;;3.03;;
44270;SDS011;29963;44.594;11.368;2023-09-07T12:51:32;4.88;;;3.30;;
44270;SDS011;29963;44.594;11.368;2023-09-07T12:53:58;3.72;;;2.80;;
44270;SDS011;29963;44.594;11.368;2023-09-07T12:56:24;3.38;;;2.63;;
44270;SDS011;29963;44.594;11.368;2023-09-07T12:58:49;4.05;;;3.15;;
44270;SDS011;29963;44.594;11.368;2023-09-07T13:01:17;2.92;;;2.55;;
44270;SDS011;29963;44.594;11.368;2023-09-07T13:03:43;4.60;;;2.60;;
44270;SDS011;29963;44.594;11.368;2023-09-07T13:06:08;4.35;;;2.95;;
44270;SDS011;29963;44.594;11.368;2023-09-07T13:08:34;3.53;;;3.15;;
44270;SDS011;29963;44.594;11.368;2023-09-07T13:11:00;4.75;;;3.38;;
44270;SDS011;29963;44.594;11.368;2023-09-07T13:13:25;3.63;;;2.53;;
44270;SDS011;29963;44.594;11.368;2023-09-07T13:15:54;3.88;;;2.83;;
44270;SDS011;29963;44.594;11.368;2023-09-07T13:18:20;3.80;;;2.70;;
44270;SDS011;29963;44.594;11.368;2023-09-07T13:20:46;4.00;;;2.90;;
44270;SDS011;29963;44.594;11.368;2023-09-07T13:23:14;3.17;;;2.58;;
44270;SDS011;29963;44.594;11.368;2023-09-07T13:25:40;3.05;;;2.78;;
44270;SDS011;29963;44.594;11.368;2023-09-07T13:28:06;3.42;;;2.50;;
44270;SDS011;29963;44.594;11.368;2023-09-07T13:30:32;3.53;;;3.03;;
44270;SDS011;29963;44.594;11.368;2023-09-07T13:32:57;5.07;;;3.15;;
44270;SDS011;29963;44.594;11.368;2023-09-07T13:35:24;3.67;;;2.75;;
44270;SDS011;29963;44.594;11.368;2023-09-07T13:37:50;7.97;;;2.83;;
44270;SDS011;29963;44.594;11.368;2023-09-07T13:40:15;3.78;;;2.88;;
44270;SDS011;29963;44.594;11.368;2023-09-07T13:42:41;5.53;;;3.00;;
44270;SDS011;29963;44.594;11.368;2023-09-07T13:45:08;2.90;;;2.63;;
44270;SDS011;29963;44.594;11.368;2023-09-07T13:47:34;2.55;;;2.33;;
44270;SDS011;29963;44.594;11.368;2023-09-07T13:49:59;3.05;;;2.75;;
44270;SDS011;29963;44.594;11.368;2023-09-07T13:52:25;4.43;;;2.67;;
44270;SDS011;29963;44.594;11.368;2023-09-07T13:54:51;3.03;;;2.55;;
44270;SDS011;29963;44.594;11.368;2023-09-07T13:57:16;3.63;;;2.42;;
44270;SDS011;29963;44.594;11.368;2023-09-07T13:59:42;3.67;;;3.28;;
44270;SDS011;29963;44.594;11.368;2023-09-07T14:02:07;6.07;;;3.08;;
44270;SDS011;29963;44.594;11.368;2023-09-07T14:04:33;4.00;;;2.88;;
44270;SDS011;29963;44.594;11.368;2023-09-07T14:06:59;6.38;;;2.78;;
44270;SDS011;29963;44.594;11.368;2023-09-07T14:09:24;4.07;;;2.83;;
44270;SDS011;29963;44.594;11.368;2023-09-07T14:11:50;4.25;;;3.17;;
44270;SDS011;29963;44.594;11.368;2023-09-07T14:14:15;3.38;;;2.90;;
44270;SDS011;29963;44.594;11.368;2023-09-07T14:16:41;6.45;;;2.95;;
44270;SDS011;29963;44.594;11.368;2023-09-07T14:19:07;3.22;;;2.40;;
44270;SDS011;29963;44.594;11.368;2023-09-07T14:21:32;4.40;;;2.97;;
44270;SDS011;29963;44.594;11.368;2023-09-07T14:23:58;4.65;;;2.63;;
44270;SDS011;29963;44.594;11.368;2023-09-07T14:26:24;3.78;;;3.22;;
44270;SDS011;29963;44.594;11.368;2023-09-07T14:28:49;6.55;;;3.08;;